createdAt,value
2018-01-04T00:00:09.476Z,96.31
2018-01-04T00:01:09.480Z,96.60
2018-01-04T00:02:09.477Z,96.22
2018-01-04T00:03:09.481Z,96.31
2018-01-04T00:04:09.478Z,96.50
2018-01-04T00:05:10.432Z,97.27
2018-01-04T00:06:09.478Z,96.98
2018-01-04T00:07:09.475Z,97.08
2018-01-04T00:08:09.473Z,96.31
2018-01-04T00:09:09.480Z,96.89
2018-01-04T00:10:09.473Z,96.22
2018-01-04T00:11:09.480Z,96.50
2018-01-04T00:12:09.479Z,96.98
2018-01-04T00:13:09.485Z,97.08
2018-01-04T00:14:09.478Z,96.22
2018-01-04T00:15:09.501Z,96.41
2018-01-04T00:16:09.496Z,96.31
2018-01-04T00:17:09.484Z,96.98
2018-01-04T00:18:09.486Z,96.98
2018-01-04T00:19:09.634Z,96.31
2018-01-04T00:20:09.475Z,96.22
2018-01-04T00:21:09.485Z,96.31
2018-01-04T00:22:09.498Z,96.12
2018-01-04T00:23:09.497Z,97.17
2018-01-04T00:24:09.491Z,96.89
2018-01-04T00:25:09.493Z,96.31
2018-01-04T00:26:09.482Z,96.12
2018-01-04T00:27:09.500Z,96.89
2018-01-04T00:28:09.503Z,96.31
2018-01-04T00:29:09.626Z,96.60
2018-01-04T00:30:09.503Z,96.41
2018-01-04T00:31:09.484Z,96.89
2018-01-04T00:32:09.493Z,96.98
2018-01-04T00:33:09.537Z,96.79
2018-01-04T00:34:09.489Z,96.98
2018-01-04T00:35:09.496Z,96.12
2018-01-04T00:36:09.497Z,96.69
2018-01-04T00:37:09.494Z,96.22
2018-01-04T00:38:09.488Z,96.22
2018-01-04T00:39:09.496Z,96.98
2018-01-04T00:40:09.507Z,96.31
2018-01-04T00:41:09.493Z,96.31
2018-01-04T00:42:09.575Z,96.79
2018-01-04T00:43:09.496Z,96.50
2018-01-04T00:44:09.525Z,96.31
2018-01-04T00:45:09.489Z,97.08
2018-01-04T00:46:09.496Z,96.79
2018-01-04T00:47:09.487Z,97.36
2018-01-04T00:48:09.507Z,96.31
2018-01-04T00:49:09.506Z,97.27
2018-01-04T00:50:09.495Z,97.83
2018-01-04T00:51:09.506Z,97.08
2018-01-04T00:52:09.621Z,96.89
2018-01-04T00:53:09.549Z,97.36
2018-01-04T00:54:09.507Z,97.36
2018-01-04T00:55:09.512Z,97.17
2018-01-04T00:56:09.500Z,97.17
2018-01-04T00:57:09.498Z,97.17
2018-01-04T00:58:09.679Z,96.98
2018-01-04T00:59:09.496Z,97.08
2018-01-04T01:00:09.495Z,97.08
2018-01-04T01:01:09.515Z,96.41
2018-01-04T01:02:09.509Z,96.89
2018-01-04T01:03:09.502Z,96.79
2018-01-04T01:04:09.501Z,96.41
2018-01-04T01:05:09.497Z,96.12
2018-01-04T01:06:09.521Z,96.12
2018-01-04T01:07:09.504Z,96.12
2018-01-04T01:08:09.508Z,96.12
2018-01-04T01:09:09.508Z,96.12
2018-01-04T01:10:09.621Z,96.22
2018-01-04T01:11:09.505Z,96.79
2018-01-04T01:12:09.517Z,96.89
2018-01-04T01:13:09.508Z,96.22
2018-01-04T01:14:09.507Z,96.41
2018-01-04T01:15:09.751Z,96.31
2018-01-04T01:16:09.517Z,96.12
2018-01-04T01:17:09.506Z,95.75
2018-01-04T01:18:10.448Z,95.46
2018-01-04T01:19:09.511Z,95.84
2018-01-04T01:20:09.508Z,95.56
2018-01-04T01:21:09.513Z,95.08
2018-01-04T01:22:09.516Z,95.65
2018-01-04T01:23:09.518Z,95.75
2018-01-04T01:24:09.523Z,95.84
2018-01-04T01:25:09.513Z,95.65
2018-01-04T01:26:09.520Z,95.56
2018-01-04T01:27:09.511Z,95.56
2018-01-04T01:28:09.515Z,94.51
2018-01-04T01:29:09.506Z,94.79
2018-01-04T01:30:09.507Z,95.17
2018-01-04T01:31:09.530Z,94.98
2018-01-04T01:32:09.523Z,95.27
2018-01-04T01:33:09.517Z,94.89
2018-01-04T01:34:09.531Z,94.51
2018-01-04T01:35:09.513Z,94.42
2018-01-04T01:36:09.520Z,94.51
2018-01-04T01:37:09.524Z,94.98
2018-01-04T01:38:09.539Z,94.13
2018-01-04T01:39:09.522Z,93.84
2018-01-04T01:40:09.527Z,93.46
2018-01-04T01:41:09.570Z,93.65
2018-01-04T01:42:09.521Z,94.32
2018-01-04T01:43:09.525Z,94.13
2018-01-04T01:44:09.542Z,93.94
2018-01-04T01:45:09.533Z,93.75
2018-01-04T01:46:09.750Z,93.55
2018-01-04T01:47:09.528Z,93.27
2018-01-04T01:48:09.531Z,93.37
2018-01-04T01:49:09.539Z,93.08
2018-01-04T01:50:09.526Z,93.08
2018-01-04T01:51:09.534Z,93.37
2018-01-04T01:52:09.525Z,93.37
2018-01-04T01:53:09.553Z,93.18
2018-01-04T01:54:09.540Z,92.99
2018-01-04T01:55:09.542Z,93.37
2018-01-04T01:56:09.524Z,93.08
2018-01-04T01:57:09.564Z,92.99
2018-01-04T01:58:09.546Z,93.18
2018-01-04T01:59:09.534Z,93.18
2018-01-04T02:00:09.542Z,92.99
2018-01-04T02:01:10.456Z,92.89
2018-01-04T02:02:09.562Z,93.37
2018-01-04T02:03:09.532Z,93.37
2018-01-04T02:04:09.534Z,93.37
2018-01-04T02:05:09.528Z,92.99
2018-01-04T02:06:09.533Z,93.37
2018-01-04T02:07:09.533Z,92.99
2018-01-04T02:08:09.541Z,93.27
2018-01-04T02:09:09.537Z,92.89
2018-01-04T02:10:09.542Z,93.37
2018-01-04T02:11:09.562Z,92.99
2018-01-04T02:12:09.537Z,92.89
2018-01-04T02:13:09.562Z,93.37
2018-01-04T02:14:09.546Z,93.46
2018-01-04T02:15:09.538Z,93.37
2018-01-04T02:16:09.546Z,92.70
2018-01-04T02:17:09.559Z,92.61
2018-01-04T02:18:09.568Z,92.99
2018-01-04T02:19:09.618Z,93.08
2018-01-04T02:20:09.715Z,93.08
2018-01-04T02:21:09.542Z,93.27
2018-01-04T02:22:09.542Z,93.27
2018-01-04T02:23:09.547Z,92.80
2018-01-04T02:24:09.550Z,93.27
2018-01-04T02:25:09.552Z,93.37
2018-01-04T02:26:09.547Z,92.80
2018-01-04T02:27:09.638Z,92.99
2018-01-04T02:28:09.636Z,93.18
2018-01-04T02:29:09.563Z,92.99
2018-01-04T02:30:09.561Z,92.99
2018-01-04T02:31:09.623Z,92.99
2018-01-04T02:32:09.578Z,92.89
2018-01-04T02:33:09.557Z,93.18
2018-01-04T02:34:09.566Z,92.99
2018-01-04T02:35:09.556Z,92.99
2018-01-04T02:36:09.559Z,93.18
2018-01-04T02:37:09.553Z,93.18
2018-01-04T02:38:09.592Z,93.27
2018-01-04T02:39:09.608Z,92.80
2018-01-04T02:40:09.651Z,92.32
2018-01-04T02:41:09.603Z,92.89
2018-01-04T02:42:09.563Z,92.80
2018-01-04T02:43:09.576Z,92.99
2018-01-04T02:44:09.584Z,93.18
2018-01-04T02:45:09.566Z,92.80
2018-01-04T02:46:09.587Z,93.27
2018-01-04T02:47:09.572Z,93.18
2018-01-04T02:48:09.659Z,92.99
2018-01-04T02:49:09.572Z,92.41
2018-01-04T02:50:09.577Z,93.18
2018-01-04T02:51:09.570Z,92.51
2018-01-04T02:52:09.570Z,93.18
2018-01-04T02:53:09.572Z,92.80
2018-01-04T02:54:09.570Z,93.27
2018-01-04T02:55:09.757Z,93.18
2018-01-04T02:56:09.574Z,92.89
2018-01-04T02:57:09.582Z,92.89
2018-01-04T02:58:09.623Z,93.27
2018-01-04T02:59:09.576Z,93.18
2018-01-04T03:00:09.579Z,92.89
2018-01-04T03:01:09.579Z,93.18
2018-01-04T03:02:09.577Z,92.99
2018-01-04T03:03:09.587Z,93.65
2018-01-04T03:04:09.596Z,93.55
2018-01-04T03:05:09.649Z,93.75
2018-01-04T03:06:09.597Z,93.84
2018-01-04T03:07:09.569Z,94.32
2018-01-04T03:08:09.573Z,94.42
2018-01-04T03:09:09.581Z,93.46
2018-01-04T03:10:09.584Z,93.55
2018-01-04T03:11:09.671Z,93.18
2018-01-04T03:12:09.586Z,93.08
2018-01-04T03:13:09.591Z,92.89
2018-01-04T03:14:09.592Z,93.27
2018-01-04T03:15:09.591Z,93.27
2018-01-04T03:16:09.695Z,93.37
2018-01-04T03:17:09.614Z,93.27
2018-01-04T03:18:09.574Z,93.37
2018-01-04T03:19:09.597Z,92.99
2018-01-04T03:20:09.593Z,93.27
2018-01-04T03:21:09.577Z,92.80
2018-01-04T03:22:09.590Z,93.08
2018-01-04T03:23:09.590Z,93.37
2018-01-04T03:24:09.721Z,93.27
2018-01-04T03:25:09.596Z,93.27
2018-01-04T03:26:09.592Z,92.80
2018-01-04T03:27:09.588Z,93.18
2018-01-04T03:28:09.580Z,93.08
2018-01-04T03:29:09.588Z,93.08
2018-01-04T03:30:09.600Z,92.99
2018-01-04T03:31:09.601Z,92.99
2018-01-04T03:32:09.595Z,92.99
2018-01-04T03:33:09.595Z,93.27
2018-01-04T03:34:09.602Z,93.08
2018-01-04T03:35:09.597Z,93.37
2018-01-04T03:36:09.606Z,93.46
2018-01-04T03:37:09.595Z,93.46
2018-01-04T03:38:09.611Z,92.70
2018-01-04T03:39:09.598Z,92.70
2018-01-04T03:40:09.596Z,92.99
2018-01-04T03:41:09.591Z,92.51
2018-01-04T03:42:09.598Z,92.51
2018-01-04T03:43:09.598Z,92.61
2018-01-04T03:44:09.593Z,92.80
2018-01-04T03:45:09.766Z,92.80
2018-01-04T03:46:09.607Z,92.61
2018-01-04T03:47:10.012Z,92.80
2018-01-04T03:48:09.620Z,92.41
2018-01-04T03:49:09.602Z,92.22
2018-01-04T03:50:09.666Z,93.08
2018-01-04T03:51:09.606Z,91.94
2018-01-04T03:52:09.615Z,92.32
2018-01-04T03:53:09.606Z,91.85
2018-01-04T03:54:09.605Z,92.03
2018-01-04T03:55:09.624Z,92.70
2018-01-04T03:56:09.607Z,92.51
2018-01-04T03:57:09.655Z,92.03
2018-01-04T03:58:09.677Z,92.89
2018-01-04T03:59:09.612Z,92.22
2018-01-04T04:00:09.613Z,92.13
2018-01-04T04:01:09.605Z,92.99
2018-01-04T04:02:09.614Z,92.51
2018-01-04T04:03:09.616Z,92.13
2018-01-04T04:04:09.616Z,92.32
2018-01-04T04:05:09.769Z,92.03
2018-01-04T04:06:09.644Z,91.75
2018-01-04T04:07:09.629Z,91.94
2018-01-04T04:08:10.487Z,91.28
2018-01-04T04:09:09.641Z,91.47
2018-01-04T04:10:09.626Z,91.85
2018-01-04T04:11:09.616Z,92.03
2018-01-04T04:12:09.616Z,92.13
2018-01-04T04:13:09.628Z,91.66
2018-01-04T04:14:09.619Z,91.75
2018-01-04T04:15:09.614Z,91.75
2018-01-04T04:16:09.618Z,91.18
2018-01-04T04:17:09.801Z,91.37
2018-01-04T04:18:09.614Z,91.28
2018-01-04T04:19:09.715Z,91.94
2018-01-04T04:20:09.632Z,92.32
2018-01-04T04:21:09.628Z,91.28
2018-01-04T04:22:09.631Z,90.99
2018-01-04T04:23:09.638Z,91.56
2018-01-04T04:24:09.615Z,91.08
2018-01-04T04:25:09.635Z,90.89
2018-01-04T04:26:09.636Z,90.80
2018-01-04T04:27:09.631Z,91.47
2018-01-04T04:28:09.627Z,90.80
2018-01-04T04:29:09.886Z,90.70
2018-01-04T04:30:09.689Z,90.14
2018-01-04T04:31:09.633Z,90.61
2018-01-04T04:32:09.641Z,90.42
2018-01-04T04:33:09.647Z,90.80
2018-01-04T04:34:09.637Z,90.33
2018-01-04T04:35:09.635Z,90.42
2018-01-04T04:36:09.801Z,90.61
2018-01-04T04:37:09.631Z,90.61
2018-01-04T04:38:09.634Z,90.33
2018-01-04T04:39:09.749Z,90.61
2018-01-04T04:40:09.628Z,90.52
2018-01-04T04:41:09.659Z,90.52
2018-01-04T04:42:09.638Z,90.70
2018-01-04T04:43:09.673Z,90.33
2018-01-04T04:44:09.632Z,90.33
2018-01-04T04:45:09.676Z,90.52
2018-01-04T04:46:09.652Z,90.33
2018-01-04T04:47:09.676Z,90.23
2018-01-04T04:48:09.672Z,90.14
2018-01-04T04:49:09.662Z,90.99
2018-01-04T04:50:09.829Z,90.61
2018-01-04T04:51:09.700Z,90.33
2018-01-04T04:52:09.649Z,90.61
2018-01-04T04:53:09.643Z,90.52
2018-01-04T04:54:09.648Z,91.08
2018-01-04T04:55:09.648Z,90.89
2018-01-04T04:56:09.654Z,90.61
2018-01-04T04:57:09.660Z,90.61
2018-01-04T04:58:09.780Z,90.66
2018-01-04T04:59:09.710Z,90.61
2018-01-04T05:00:09.652Z,91.18
2018-01-04T05:01:09.659Z,91.28
2018-01-04T05:02:09.646Z,91.28
2018-01-04T05:03:09.655Z,91.08
2018-01-04T05:04:09.643Z,91.28
2018-01-04T05:05:09.945Z,91.18
2018-01-04T05:06:09.655Z,90.61
2018-01-04T05:07:09.649Z,90.52
2018-01-04T05:08:09.666Z,90.61
2018-01-04T05:09:09.649Z,90.80
2018-01-04T05:10:09.870Z,91.08
2018-01-04T05:11:09.680Z,91.08
2018-01-04T05:12:09.732Z,90.70
2018-01-04T05:13:09.655Z,91.18
2018-01-04T05:14:09.677Z,91.18
2018-01-04T05:15:09.652Z,91.18
2018-01-04T05:16:09.682Z,90.33
2018-01-04T05:17:09.657Z,90.52
2018-01-04T05:18:09.660Z,90.80
2018-01-04T05:19:09.653Z,90.80
2018-01-04T05:20:09.839Z,90.61
2018-01-04T05:21:09.947Z,90.80
2018-01-04T05:22:09.668Z,90.70
2018-01-04T05:23:09.673Z,90.52
2018-01-04T05:24:09.658Z,90.61
2018-01-04T05:25:09.664Z,90.04
2018-01-04T05:26:09.674Z,90.23
2018-01-04T05:27:09.663Z,90.23
2018-01-04T05:28:09.665Z,90.14
2018-01-04T05:29:09.681Z,89.85
2018-01-04T05:30:09.678Z,90.04
2018-01-04T05:31:09.666Z,90.33
2018-01-04T05:32:09.965Z,89.75
2018-01-04T05:33:10.509Z,89.28
2018-01-04T05:34:09.692Z,89.56
2018-01-04T05:35:09.678Z,90.04
2018-01-04T05:36:09.708Z,90.52
2018-01-04T05:37:09.677Z,89.85
2018-01-04T05:38:09.683Z,90.14
2018-01-04T05:39:09.695Z,89.94
2018-01-04T05:40:09.697Z,89.37
2018-01-04T05:41:09.676Z,89.85
2018-01-04T05:42:09.678Z,89.75
2018-01-04T05:43:09.773Z,89.94
2018-01-04T05:44:09.895Z,89.47
2018-01-04T05:45:09.729Z,89.47
2018-01-04T05:46:10.514Z,90.04
2018-01-04T05:47:09.698Z,89.56
2018-01-04T05:48:09.915Z,89.94
2018-01-04T05:49:09.689Z,90.23
2018-01-04T05:50:09.695Z,89.85
2018-01-04T05:51:09.685Z,90.52
2018-01-04T05:52:09.729Z,90.52
2018-01-04T05:53:09.692Z,90.42
2018-01-04T05:54:09.687Z,90.61
2018-01-04T05:55:09.691Z,91.08
2018-01-04T05:56:09.695Z,90.99
2018-01-04T05:57:09.695Z,90.14
2018-01-04T05:58:09.685Z,90.70
2018-01-04T05:59:10.515Z,90.80
2018-01-04T06:00:09.696Z,90.70
2018-01-04T06:01:09.694Z,90.14
2018-01-04T06:02:09.702Z,90.99
2018-01-04T06:03:09.697Z,91.47
2018-01-04T06:04:09.786Z,91.47
2018-01-04T06:05:09.872Z,90.52
2018-01-04T06:06:09.744Z,90.33
2018-01-04T06:07:09.706Z,90.52
2018-01-04T06:08:09.706Z,90.33
2018-01-04T06:09:09.701Z,90.23
2018-01-04T06:10:09.710Z,90.80
2018-01-04T06:11:09.727Z,90.61
2018-01-04T06:12:09.699Z,91.08
2018-01-04T06:13:09.701Z,90.89
2018-01-04T06:14:10.518Z,91.08
2018-01-04T06:15:09.704Z,90.99
2018-01-04T06:16:09.717Z,90.70
2018-01-04T06:17:10.121Z,90.33
2018-01-04T06:18:09.708Z,90.70
2018-01-04T06:19:09.705Z,90.61
2018-01-04T06:20:09.701Z,90.89
2018-01-04T06:21:09.706Z,90.61
2018-01-04T06:22:09.705Z,90.52
2018-01-04T06:23:09.708Z,90.33
2018-01-04T06:24:09.709Z,90.89
2018-01-04T06:25:09.705Z,90.52
2018-01-04T06:26:09.708Z,90.61
2018-01-04T06:27:09.702Z,90.52
2018-01-04T06:28:09.760Z,89.85
2018-01-04T06:29:09.715Z,90.70
2018-01-04T06:30:09.749Z,90.61
2018-01-04T06:31:09.723Z,90.52
2018-01-04T06:32:09.705Z,90.89
2018-01-04T06:33:09.811Z,91.37
2018-01-04T06:34:09.723Z,90.99
2018-01-04T06:35:09.707Z,90.80
2018-01-04T06:36:09.721Z,91.37
2018-01-04T06:37:09.720Z,91.47
2018-01-04T06:38:09.832Z,91.28
2018-01-04T06:39:09.736Z,91.66
2018-01-04T06:40:10.357Z,91.85
2018-01-04T06:41:09.741Z,91.85
2018-01-04T06:42:09.720Z,91.85
2018-01-04T06:43:09.812Z,92.51
2018-01-04T06:44:09.720Z,92.89
2018-01-04T06:45:09.766Z,91.94
2018-01-04T06:46:09.736Z,92.99
2018-01-04T06:47:09.722Z,92.99
2018-01-04T06:48:09.755Z,92.89
2018-01-04T06:49:09.914Z,92.61
2018-01-04T06:50:09.738Z,92.89
2018-01-04T06:51:09.818Z,92.70
2018-01-04T06:52:09.729Z,92.70
2018-01-04T06:53:09.733Z,92.80
2018-01-04T06:54:09.723Z,92.61
2018-01-04T06:55:09.720Z,92.80
2018-01-04T06:56:09.820Z,92.89
2018-01-04T06:57:09.730Z,92.80
2018-01-04T06:58:09.729Z,92.89
2018-01-04T06:59:09.727Z,93.27
2018-01-04T07:00:09.752Z,92.89
2018-01-04T07:01:09.736Z,93.08
2018-01-04T07:02:09.812Z,93.37
2018-01-04T07:03:09.741Z,92.61
2018-01-04T07:04:09.735Z,92.70
2018-01-04T07:05:09.757Z,92.99
2018-01-04T07:06:09.747Z,92.80
2018-01-04T07:07:09.749Z,93.27
2018-01-04T07:08:09.751Z,92.99
2018-01-04T07:09:09.745Z,92.99
2018-01-04T07:10:09.945Z,92.51
2018-01-04T07:11:09.770Z,92.80
2018-01-04T07:12:09.746Z,92.51
2018-01-04T07:13:09.741Z,92.32
2018-01-04T07:14:09.852Z,92.18
2018-01-04T07:15:09.751Z,92.03
2018-01-04T07:16:09.742Z,92.03
2018-01-04T07:17:09.768Z,92.70
2018-01-04T07:18:09.763Z,92.61
2018-01-04T07:19:09.751Z,92.80
2018-01-04T07:20:09.746Z,92.99
2018-01-04T07:21:09.776Z,92.99
2018-01-04T07:22:09.751Z,93.18
2018-01-04T07:23:09.767Z,93.08
2018-01-04T07:24:09.755Z,93.46
2018-01-04T07:25:09.754Z,93.37
2018-01-04T07:26:09.756Z,92.51
2018-01-04T07:27:09.827Z,92.80
2018-01-04T07:28:09.751Z,92.03
2018-01-04T07:29:09.799Z,92.41
2018-01-04T07:30:09.767Z,93.08
2018-01-04T07:31:09.752Z,92.13
2018-01-04T07:32:09.990Z,92.27
2018-01-04T07:33:09.759Z,92.03
2018-01-04T07:34:09.753Z,92.03
2018-01-04T07:35:09.762Z,92.32
2018-01-04T07:36:09.767Z,92.36
2018-01-04T07:37:09.759Z,92.08
2018-01-04T07:38:09.760Z,92.32
2018-01-04T07:39:09.768Z,92.18
2018-01-04T07:40:10.542Z,91.80
2018-01-04T07:41:09.760Z,92.84
2018-01-04T07:42:09.773Z,92.75
2018-01-04T07:43:09.763Z,92.84
2018-01-04T07:44:09.769Z,92.18
2018-01-04T07:45:09.768Z,92.08
2018-01-04T07:46:09.782Z,91.89
2018-01-04T07:47:09.776Z,91.61
2018-01-04T07:48:09.835Z,91.22
2018-01-04T07:49:09.809Z,90.84
2018-01-04T07:50:10.541Z,91.80
2018-01-04T07:51:09.769Z,91.42
2018-01-04T07:52:09.771Z,91.61
2018-01-04T07:53:09.768Z,91.42
2018-01-04T07:54:09.779Z,91.80
2018-01-04T07:55:09.776Z,91.80
2018-01-04T07:56:09.788Z,90.94
2018-01-04T07:57:09.780Z,90.56
2018-01-04T07:58:09.875Z,91.42
2018-01-04T07:59:09.780Z,91.80
2018-01-04T08:00:09.789Z,90.75
2018-01-04T08:01:09.777Z,91.13
2018-01-04T08:02:09.777Z,91.42
2018-01-04T08:03:09.785Z,90.66
2018-01-04T08:04:09.782Z,91.32
2018-01-04T08:05:09.794Z,91.51
2018-01-04T08:06:09.796Z,91.03
2018-01-04T08:07:09.791Z,91.22
2018-01-04T08:08:09.789Z,91.80
2018-01-04T08:09:09.785Z,91.13
2018-01-04T08:10:09.811Z,91.32
2018-01-04T08:11:10.553Z,92.08
2018-01-04T08:12:09.794Z,92.46
2018-01-04T08:13:09.787Z,92.08
2018-01-04T08:14:09.794Z,91.42
2018-01-04T08:15:09.791Z,91.13
2018-01-04T08:16:09.798Z,91.22
2018-01-04T08:17:09.799Z,91.61
2018-01-04T08:18:09.800Z,91.32
2018-01-04T08:19:09.798Z,91.61
2018-01-04T08:20:09.803Z,90.94
2018-01-04T08:21:09.827Z,91.80
2018-01-04T08:22:09.811Z,91.80
2018-01-04T08:23:09.870Z,91.13
2018-01-04T08:24:09.863Z,91.80
2018-01-04T08:25:09.821Z,92.56
2018-01-04T08:26:09.808Z,91.51
2018-01-04T08:27:09.808Z,91.61
2018-01-04T08:28:09.807Z,91.80
2018-01-04T08:29:09.822Z,90.66
2018-01-04T08:30:11.086Z,91.13
2018-01-04T08:31:09.803Z,91.80
2018-01-04T08:32:09.811Z,91.32
2018-01-04T08:33:09.813Z,91.22
2018-01-04T08:34:10.561Z,90.84
2018-01-04T08:35:09.817Z,90.75
2018-01-04T08:36:09.823Z,90.66
2018-01-04T08:37:09.844Z,90.66
2018-01-04T08:38:09.818Z,90.47
2018-01-04T08:39:09.819Z,90.66
2018-01-04T08:40:09.832Z,90.75
2018-01-04T08:41:11.074Z,90.56
2018-01-04T08:42:09.841Z,90.56
2018-01-04T08:43:09.844Z,90.75
2018-01-04T08:44:09.828Z,91.32
2018-01-04T08:45:09.864Z,90.84
2018-01-04T08:46:09.874Z,90.84
2018-01-04T08:47:09.823Z,90.66
2018-01-04T08:48:09.833Z,91.22
2018-01-04T08:49:10.308Z,91.03
2018-01-04T08:50:09.831Z,91.03
2018-01-04T08:51:09.849Z,91.13
2018-01-04T08:52:09.990Z,91.22
2018-01-04T08:53:09.932Z,90.56
2018-01-04T08:54:09.843Z,90.56
2018-01-04T08:55:09.892Z,91.03
2018-01-04T08:56:09.839Z,90.84
2018-01-04T08:57:09.835Z,90.37
2018-01-04T08:58:09.847Z,90.56
2018-01-04T08:59:09.844Z,90.75
2018-01-04T09:00:09.849Z,90.75
2018-01-04T09:01:09.846Z,90.66
2018-01-04T09:02:09.868Z,90.75
2018-01-04T09:03:09.845Z,91.22
2018-01-04T09:04:09.845Z,90.47
2018-01-04T09:05:10.006Z,90.75
2018-01-04T09:06:09.846Z,90.47
2018-01-04T09:07:09.899Z,90.47
2018-01-04T09:08:09.847Z,91.03
2018-01-04T09:09:09.868Z,91.13
2018-01-04T09:10:09.846Z,91.03
2018-01-04T09:11:09.869Z,90.94
2018-01-04T09:12:09.856Z,90.94
2018-01-04T09:13:10.673Z,91.13
2018-01-04T09:14:09.856Z,90.66
2018-01-04T09:15:09.865Z,90.84
2018-01-04T09:16:10.080Z,90.56
2018-01-04T09:17:09.860Z,90.56
2018-01-04T09:18:10.010Z,90.56
2018-01-04T09:19:10.571Z,90.37
2018-01-04T09:20:09.920Z,90.66
2018-01-04T09:21:09.924Z,90.75
2018-01-04T09:22:09.948Z,90.66
2018-01-04T09:23:09.878Z,91.13
2018-01-04T09:24:09.874Z,90.75
2018-01-04T09:25:09.892Z,90.66
2018-01-04T09:26:09.887Z,91.03
2018-01-04T09:27:09.872Z,90.80
2018-01-04T09:28:09.891Z,91.08
2018-01-04T09:29:09.900Z,91.08
2018-01-04T09:30:09.885Z,91.27
2018-01-04T09:31:09.952Z,90.61
2018-01-04T09:32:09.900Z,90.61
2018-01-04T09:33:09.877Z,90.61
2018-01-04T09:34:09.871Z,90.70
2018-01-04T09:35:09.879Z,90.99
2018-01-04T09:36:09.885Z,90.42
2018-01-04T09:37:09.890Z,90.32
2018-01-04T09:38:09.918Z,90.32
2018-01-04T09:39:09.887Z,90.61
2018-01-04T09:40:09.904Z,90.80
2018-01-04T09:41:09.914Z,89.65
2018-01-04T09:42:09.912Z,90.32
2018-01-04T09:43:09.964Z,90.80
2018-01-04T09:44:09.904Z,90.70
2018-01-04T09:45:09.963Z,90.70
2018-01-04T09:46:10.574Z,90.51
2018-01-04T09:47:09.906Z,90.42
2018-01-04T09:48:09.952Z,90.22
2018-01-04T09:49:09.944Z,90.61
2018-01-04T09:50:09.955Z,90.22
2018-01-04T09:51:09.904Z,89.75
2018-01-04T09:52:10.058Z,89.84
2018-01-04T09:53:09.899Z,89.84
2018-01-04T09:54:09.927Z,89.94
2018-01-04T09:55:09.918Z,89.84
2018-01-04T09:56:09.905Z,89.75
2018-01-04T09:57:09.910Z,89.75
2018-01-04T09:58:09.908Z,89.47
2018-01-04T09:59:10.100Z,89.65
2018-01-04T10:00:09.936Z,89.65
2018-01-04T10:01:09.910Z,89.65
2018-01-04T10:02:10.585Z,89.65
2018-01-04T10:03:10.077Z,89.84
2018-01-04T10:04:09.921Z,90.61
2018-01-04T10:05:09.964Z,90.89
2018-01-04T10:06:09.961Z,90.70
2018-01-04T10:07:09.957Z,90.51
2018-01-04T10:08:09.991Z,90.80
2018-01-04T10:09:09.926Z,90.80
2018-01-04T10:10:09.968Z,90.42
2018-01-04T10:11:09.937Z,90.70
2018-01-04T10:12:10.013Z,90.22
2018-01-04T10:13:09.956Z,90.80
2018-01-04T10:14:09.939Z,90.61
2018-01-04T10:15:10.582Z,90.70
2018-01-04T10:16:09.931Z,89.84
2018-01-04T10:17:09.970Z,90.13
2018-01-04T10:18:10.612Z,90.80
2018-01-04T10:19:09.935Z,90.03
2018-01-04T10:20:09.941Z,90.70
2018-01-04T10:21:09.947Z,90.51
2018-01-04T10:22:09.944Z,90.89
2018-01-04T10:23:10.034Z,90.89
2018-01-04T10:24:09.991Z,90.70
2018-01-04T10:25:09.967Z,90.22
2018-01-04T10:26:09.971Z,89.65
2018-01-04T10:27:09.964Z,89.65
2018-01-04T10:28:09.959Z,89.94
2018-01-04T10:29:09.975Z,89.56
2018-01-04T10:30:09.955Z,89.75
2018-01-04T10:31:09.989Z,89.75
2018-01-04T10:32:09.972Z,89.56
2018-01-04T10:33:09.988Z,90.51
2018-01-04T10:34:10.049Z,89.65
2018-01-04T10:35:09.991Z,89.94
2018-01-04T10:36:09.974Z,89.75
2018-01-04T10:37:09.988Z,89.84
2018-01-04T10:38:09.993Z,90.13
2018-01-04T10:39:09.971Z,90.13
2018-01-04T10:40:09.973Z,89.37
2018-01-04T10:41:10.009Z,89.94
2018-01-04T10:42:10.036Z,89.75
2018-01-04T10:43:09.977Z,89.75
2018-01-04T10:44:09.984Z,89.94
2018-01-04T10:45:09.997Z,89.56
2018-01-04T10:46:10.591Z,89.65
2018-01-04T10:47:10.007Z,88.89
2018-01-04T10:48:10.075Z,89.47
2018-01-04T10:49:10.074Z,89.37
2018-01-04T10:50:10.018Z,89.47
2018-01-04T10:51:10.001Z,89.47
2018-01-04T10:52:10.083Z,89.65
2018-01-04T10:53:10.008Z,89.65
2018-01-04T10:54:09.987Z,89.94
2018-01-04T10:55:10.439Z,89.65
2018-01-04T10:56:10.196Z,89.37
2018-01-04T10:57:10.045Z,89.37
2018-01-04T10:58:10.148Z,89.75
2018-01-04T10:59:10.028Z,89.94
2018-01-04T11:00:10.556Z,89.22
2018-01-04T11:01:17.089Z,88.89
2018-01-04T11:02:10.069Z,89.08
2018-01-04T11:03:10.148Z,88.70
2018-01-04T11:04:10.087Z,88.75
2018-01-04T11:05:10.229Z,89.79
2018-01-04T11:06:10.165Z,88.84
2018-01-04T11:07:13.603Z,89.51
2018-01-04T11:08:10.583Z,88.84
2018-01-04T11:09:10.263Z,88.65
2018-01-04T11:10:10.195Z,88.75
2018-01-04T11:11:10.321Z,88.93
2018-01-04T11:12:10.087Z,88.46
2018-01-04T11:13:10.027Z,89.13
2018-01-04T11:14:10.084Z,88.75
2018-01-04T11:15:10.155Z,88.46
2018-01-04T11:16:10.403Z,88.46
2018-01-04T11:17:10.168Z,87.98
2018-01-04T11:18:10.228Z,88.08
2018-01-04T11:19:10.603Z,88.75
2018-01-04T11:20:10.103Z,87.98
2018-01-04T11:21:10.059Z,87.89
2018-01-04T11:22:10.055Z,88.27
2018-01-04T11:23:10.058Z,88.27
2018-01-04T11:24:10.142Z,88.18
2018-01-04T11:25:10.062Z,88.93
2018-01-04T11:26:10.068Z,88.46
2018-01-04T11:27:10.058Z,88.46
2018-01-04T11:28:10.073Z,88.56
2018-01-04T11:29:10.109Z,88.08
2018-01-04T11:30:10.069Z,88.56
2018-01-04T11:31:10.123Z,88.37
2018-01-04T11:32:10.057Z,88.27
2018-01-04T11:33:10.094Z,88.46
2018-01-04T11:34:10.076Z,88.46
2018-01-04T11:35:10.087Z,87.79
2018-01-04T11:36:10.077Z,88.37
2018-01-04T11:37:10.078Z,87.98
2018-01-04T11:38:10.062Z,88.46
2018-01-04T11:39:10.068Z,88.27
2018-01-04T11:40:10.113Z,88.18
2018-01-04T11:41:10.094Z,87.60
2018-01-04T11:42:10.075Z,87.89
2018-01-04T11:43:10.080Z,87.89
2018-01-04T11:44:10.088Z,88.08
2018-01-04T11:45:10.144Z,87.89
2018-01-04T11:46:10.154Z,87.98
2018-01-04T11:47:10.098Z,87.51
2018-01-04T11:48:10.108Z,87.51
2018-01-04T11:49:10.141Z,87.70
2018-01-04T11:50:10.093Z,88.18
2018-01-04T11:51:10.087Z,88.03
2018-01-04T11:52:10.097Z,87.93
2018-01-04T11:53:10.092Z,88.18
2018-01-04T11:54:10.095Z,87.70
2018-01-04T11:55:10.109Z,87.70
2018-01-04T11:56:10.261Z,87.60
2018-01-04T11:57:10.118Z,87.79
2018-01-04T11:58:10.127Z,87.89
2018-01-04T11:59:10.129Z,87.89
2018-01-04T12:00:10.108Z,87.51
2018-01-04T12:01:10.298Z,87.51
2018-01-04T12:02:10.127Z,87.89
2018-01-04T12:03:10.132Z,87.23
2018-01-04T12:04:10.162Z,88.46
2018-01-04T12:05:10.144Z,88.37
2018-01-04T12:06:10.141Z,88.08
2018-01-04T12:07:10.144Z,87.51
2018-01-04T12:08:10.172Z,87.98
2018-01-04T12:09:10.145Z,88.18
2018-01-04T12:10:10.128Z,88.37
2018-01-04T12:11:10.160Z,88.37
2018-01-04T12:12:10.188Z,88.37
2018-01-04T12:13:10.260Z,88.65
2018-01-04T12:14:10.137Z,88.27
2018-01-04T12:15:10.343Z,88.37
2018-01-04T12:16:10.289Z,93.13
2018-01-04T12:17:10.352Z,91.31
2018-01-04T12:18:10.209Z,92.36
2018-01-04T12:19:10.265Z,93.22
2018-01-04T12:20:10.529Z,90.70
2018-01-04T12:21:10.157Z,89.55
2018-01-04T12:22:10.146Z,88.84
2018-01-04T12:23:10.159Z,88.79
2018-01-04T12:24:10.174Z,88.60
2018-01-04T12:25:10.166Z,89.17
2018-01-04T12:26:10.182Z,88.79
2018-01-04T12:27:10.160Z,89.07
2018-01-04T12:28:10.194Z,88.89
2018-01-04T12:29:10.226Z,89.07
2018-01-04T12:30:10.224Z,88.31
2018-01-04T12:31:10.204Z,88.41
2018-01-04T12:32:10.183Z,88.37
2018-01-04T12:33:10.200Z,88.31
2018-01-04T12:34:10.236Z,87.93
2018-01-04T12:35:10.250Z,88.12
2018-01-04T12:36:10.237Z,88.60
2018-01-04T12:37:10.214Z,88.03
2018-01-04T12:38:10.238Z,87.74
2018-01-04T12:39:10.181Z,87.79
2018-01-04T12:40:10.188Z,88.03
2018-01-04T12:41:10.205Z,88.37
2018-01-04T12:42:10.191Z,88.37
2018-01-04T12:43:10.425Z,88.18
2018-01-04T12:44:10.191Z,88.70
2018-01-04T12:45:11.125Z,88.56
2018-01-04T12:46:10.202Z,88.65
2018-01-04T12:47:10.213Z,88.03
2018-01-04T12:48:10.449Z,87.98
2018-01-04T12:49:10.295Z,87.51
2018-01-04T12:50:10.212Z,87.32
2018-01-04T12:51:10.256Z,87.23
2018-01-04T12:52:10.310Z,87.70